Time,TemperatureF,DewpointF,PressureIn,WindDirection,WindDirectionDegrees,WindSpeedMPH,WindSpeedGustMPH,Humidity,HourlyPrecipIn,Conditions,Clouds,dailyrainin,SoftwareType,DateUTC
2013-02-08 00:02:00,21.7,3.7,30.02,WSW,254,0.0,0.0,45,0.00,,---,0.00,VWS V14.01,2013-02-08 07:02:00,
2013-02-08 00:07:00,21.6,3.5,29.99,SW,227,3.1,4.0,45,0.00,,---,0.00,VWS V14.01,2013-02-08 07:07:00,
2013-02-08 00:13:00,21.4,3.3,29.99,SSE,167,0.0,0.0,45,0.00,,---,0.00,VWS V14.01,2013-02-08 07:13:00,
2013-02-08 00:18:00,21.2,4.1,29.99,WSW,251,2.2,2.7,47,0.00,,---,0.00,VWS V14.01,2013-02-08 07:18:00,
2013-02-08 00:24:00,21.2,4.1,29.99,WSW,249,0.0,0.0,47,0.00,,---,0.00,VWS V14.01,2013-02-08 07:24:00,
2013-02-08 00:30:00,21.2,3.7,29.99,WSW,255,4.0,5.8,46,0.00,,---,0.00,VWS V14.01,2013-02-08 07:30:00,
2013-02-08 00:35:00,21.2,3.7,29.99,SSW,192,8.3,8.7,46,0.00,,---,0.00,VWS V14.01,2013-02-08 07:35:00,
2013-02-08 00:41:00,21.7,3.7,29.99,SW,219,5.4,5.4,45,0.00,,---,0.00,VWS V14.01,2013-02-08 07:41:00,
2013-02-08 00:47:00,22.3,4.2,29.99,WSW,242,5.8,8.7,45,0.00,,---,0.00,VWS V14.01,2013-02-08 07:47:00,
2013-02-08 00:52:00,22.5,3.9,29.99,SSW,192,8.1,8.1,44,0.00,,---,0.00,VWS V14.01,2013-02-08 07:52:00,
2013-02-08 00:58:00,22.6,3.5,29.99,SW,233,11.0,13.2,43,0.00,,---,0.00,VWS V14.01,2013-02-08 07:58:00,
2013-02-08 01:04:00,23.2,4.0,29.99,SSW,196,5.4,9.6,43,0.00,,---,0.00,VWS V14.01,2013-02-08 08:04:00,
2013-02-08 01:10:00,23.7,4.0,29.99,SW,230,3.1,9.6,42,0.00,,---,0.00,VWS V14.01,2013-02-08 08:10:00,
2013-02-08 01:15:00,23.5,3.8,29.99,SSW,198,11.0,11.0,42,0.00,,---,0.00,VWS V14.01,2013-02-08 08:15:00,
2013-02-08 01:20:00,23.7,4.0,29.99,SSW,208,3.6,8.1,42,0.00,,---,0.00,VWS V14.01,2013-02-08 08:20:00,
2013-02-08 01:26:00,24.1,4.3,29.99,SSE,168,6.3,9.6,42,0.00,,---,0.00,VWS V14.01,2013-02-08 08:26:00,
2013-02-08 01:31:00,24.4,4.7,29.99,South,190,11.0,11.0,42,0.00,,---,0.00,VWS V14.01,2013-02-08 08:31:00,
2013-02-08 01:37:00,24.8,4.4,29.96,SSW,203,8.3,8.3,41,0.00,,---,0.00,VWS V14.01,2013-02-08 08:37:00,
2013-02-08 01:42:00,25.0,4.6,29.96,SW,234,11.0,11.0,41,0.00,,---,0.00,VWS V14.01,2013-02-08 08:42:00,
2013-02-08 01:48:00,25.0,3.5,29.96,SSW,203,5.8,8.3,39,0.00,,---,0.00,VWS V14.01,2013-02-08 08:48:00,
2013-02-08 01:53:00,24.8,4.4,29.96,SW,222,8.1,8.1,41,0.00,,---,0.00,VWS V14.01,2013-02-08 08:53:00,
2013-02-08 01:59:00,24.4,4.1,29.96,WSW,249,6.3,6.3,41,0.00,,---,0.00,VWS V14.01,2013-02-08 08:59:00,
2013-02-08 02:04:00,24.3,4.0,29.96,SW,235,5.4,8.7,41,0.00,,---,0.00,VWS V14.01,2013-02-08 09:04:00,
2013-02-08 02:09:00,24.3,4.0,29.96,SSW,205,8.3,8.7,41,0.00,,---,0.00,VWS V14.01,2013-02-08 09:09:00,
2013-02-08 02:15:00,24.4,4.7,29.96,SSW,200,11.4,11.4,42,0.00,,---,0.00,VWS V14.01,2013-02-08 09:15:00,
2013-02-08 02:20:00,24.6,4.8,29.96,SW,217,5.4,10.1,42,0.00,,---,0.00,VWS V14.01,2013-02-08 09:20:00,
2013-02-08 02:25:00,24.8,3.9,29.96,WSW,239,5.8,7.6,40,0.00,,---,0.00,VWS V14.01,2013-02-08 09:25:00,
2013-02-08 02:31:00,24.4,3.6,29.96,SSE,152,2.7,5.4,40,0.00,,---,0.00,VWS V14.01,2013-02-08 09:31:00,
2013-02-08 02:37:00,24.3,4.5,29.96,SSW,209,3.6,4.0,42,0.00,,---,0.00,VWS V14.01,2013-02-08 09:37:00,
2013-02-08 02:42:00,23.9,4.2,29.96,SSW,201,0.0,0.0,42,0.00,,---,0.00,VWS V14.01,2013-02-08 09:42:00,
2013-02-08 02:48:00,23.9,4.2,29.96,SW,230,3.6,5.8,42,0.00,,---,0.00,VWS V14.01,2013-02-08 09:48:00,
2013-02-08 02:53:00,23.7,4.0,29.96,South,180,4.9,4.9,42,0.00,,---,0.00,VWS V14.01,2013-02-08 09:53:00,
2013-02-08 02:59:00,23.7,4.0,29.96,SW,229,3.1,5.8,42,0.00,,---,0.00,VWS V14.01,2013-02-08 09:59:00,
2013-02-08 03:04:00,23.7,4.0,29.96,WSW,238,5.4,5.4,42,0.00,,---,0.00,VWS V14.01,2013-02-08 10:04:00,
2013-02-08 03:10:00,23.9,4.2,29.96,SSW,200,2.7,6.3,42,0.00,,---,0.00,VWS V14.01,2013-02-08 10:10:00,
2013-02-08 03:16:00,23.7,4.0,29.96,SW,214,4.0,5.4,42,0.00,,---,0.00,VWS V14.01,2013-02-08 10:16:00,
2013-02-08 03:21:00,23.9,4.2,29.96,West,275,3.6,4.9,42,0.00,,---,0.00,VWS V14.01,2013-02-08 10:21:00,
2013-02-08 03:27:00,24.1,4.3,29.96,WSW,257,5.4,5.4,42,0.00,,---,0.00,VWS V14.01,2013-02-08 10:27:00,
2013-02-08 03:32:00,24.1,4.3,29.96,SW,216,3.6,7.2,42,0.00,,---,0.00,VWS V14.01,2013-02-08 10:32:00,
2013-02-08 03:37:00,24.4,4.7,29.93,West,261,5.4,6.3,42,0.00,,---,0.00,VWS V14.01,2013-02-08 10:37:00,
2013-02-08 03:43:00,25.0,4.6,29.93,West,266,2.7,6.3,41,0.00,,---,0.00,VWS V14.01,2013-02-08 10:43:00,
2013-02-08 03:49:00,25.5,5.6,29.96,SW,223,5.8,7.6,42,0.00,,---,0.00,VWS V14.01,2013-02-08 10:49:00,
2013-02-08 03:55:00,26.1,5.6,29.96,East,83,4.0,8.7,41,0.00,,---,0.00,VWS V14.01,2013-02-08 10:55:00,
2013-02-08 04:00:00,26.4,5.9,29.96,SW,223,6.7,8.3,41,0.00,,---,0.00,VWS V14.01,2013-02-08 11:00:00,
2013-02-08 04:06:00,26.8,6.2,29.93,SSE,164,7.2,8.7,41,0.00,,---,0.00,VWS V14.01,2013-02-08 11:06:00,
2013-02-08 04:12:00,27.0,6.4,29.93,SW,221,5.8,7.6,41,0.00,,---,0.00,VWS V14.01,2013-02-08 11:12:00,
2013-02-08 04:18:00,27.0,6.4,29.93,SSW,206,13.2,13.2,41,0.00,,---,0.00,VWS V14.01,2013-02-08 11:18:00,
2013-02-08 04:24:00,27.0,6.4,29.93,South,178,10.5,10.5,41,0.00,,---,0.00,VWS V14.01,2013-02-08 11:24:00,
2013-02-08 04:30:00,27.1,6.6,29.93,SE,132,5.4,9.6,41,0.00,,---,0.00,VWS V14.01,2013-02-08 11:30:00,
2013-02-08 04:35:00,27.1,6.6,29.93,WSW,255,5.4,10.5,41,0.00,,---,0.00,VWS V14.01,2013-02-08 11:35:00,
2013-02-08 04:40:00,27.1,6.6,29.93,WSW,247,4.9,11.9,41,0.00,,---,0.00,VWS V14.01,2013-02-08 11:40:00,
2013-02-08 04:45:00,27.1,6.0,29.93,WSW,246,6.3,6.3,40,0.00,,---,0.00,VWS V14.01,2013-02-08 11:45:00,
2013-02-08 04:51:00,27.1,6.6,29.93,SW,235,3.6,8.7,41,0.00,,---,0.00,VWS V14.01,2013-02-08 11:51:00,
2013-02-08 04:56:00,27.1,6.6,29.93,SSE,154,3.1,8.7,41,0.00,,---,0.00,VWS V14.01,2013-02-08 11:56:00,
2013-02-08 05:02:00,27.1,7.1,29.93,WSW,252,8.1,8.1,42,0.00,,---,0.00,VWS V14.01,2013-02-08 12:02:00,
2013-02-08 05:07:00,27.0,6.4,29.93,SE,143,8.3,13.6,41,0.00,,---,0.00,VWS V14.01,2013-02-08 12:07:00,
2013-02-08 05:12:00,27.0,6.9,29.93,SW,218,10.5,12.8,42,0.00,,---,0.00,VWS V14.01,2013-02-08 12:12:00,
2013-02-08 05:17:00,27.0,6.4,29.93,SSW,211,5.4,6.3,41,0.00,,---,0.00,VWS V14.01,2013-02-08 12:17:00,
2013-02-08 05:22:00,27.0,6.9,29.93,South,184,3.1,7.2,42,0.00,,---,0.00,VWS V14.01,2013-02-08 12:22:00,
2013-02-08 05:28:00,26.6,7.1,29.93,SE,144,5.4,5.8,43,0.00,,---,0.00,VWS V14.01,2013-02-08 12:28:00,
2013-02-08 05:33:00,26.6,7.1,29.93,SW,235,3.6,5.4,43,0.00,,---,0.00,VWS V14.01,2013-02-08 12:33:00,
2013-02-08 05:38:00,26.4,7.5,29.93,South,183,3.6,8.1,44,0.00,,---,0.00,VWS V14.01,2013-02-08 12:38:00,
2013-02-08 05:43:00,26.4,7.5,29.93,SW,228,5.4,7.6,44,0.00,,---,0.00,VWS V14.01,2013-02-08 12:43:00,
2013-02-08 05:48:00,26.2,7.8,29.93,SW,232,8.3,8.3,45,0.00,,---,0.00,VWS V14.01,2013-02-08 12:48:00,
2013-02-08 05:53:00,26.2,8.3,29.93,SW,214,5.4,5.8,46,0.00,,---,0.00,VWS V14.01,2013-02-08 12:53:00,
2013-02-08 05:58:00,26.2,8.8,29.93,SSE,165,4.0,8.3,47,0.00,,---,0.00,VWS V14.01,2013-02-08 12:58:00,
2013-02-08 06:03:00,26.2,8.8,29.93,South,172,4.0,8.7,47,0.00,,---,0.00,VWS V14.01,2013-02-08 13:03:00,
2013-02-08 06:08:00,26.2,8.8,29.93,SSE,154,5.4,8.3,47,0.00,,---,0.00,VWS V14.01,2013-02-08 13:08:00,
2013-02-08 06:13:00,26.2,8.8,29.93,WSW,243,0.0,6.3,47,0.00,,---,0.00,VWS V14.01,2013-02-08 13:13:00,
2013-02-08 06:18:00,26.2,8.8,29.90,West,260,4.9,5.4,47,0.00,,---,0.00,VWS V14.01,2013-02-08 13:18:00,
2013-02-08 06:23:00,26.1,8.6,29.90,WSW,252,3.1,4.0,47,0.00,,---,0.00,VWS V14.01,2013-02-08 13:23:00,
2013-02-08 06:28:00,25.9,8.4,29.90,WSW,253,5.4,6.3,47,0.00,,---,0.00,VWS V14.01,2013-02-08 13:28:00,
2013-02-08 06:33:00,25.7,8.7,29.90,SSW,192,0.0,3.6,48,0.00,,---,0.00,VWS V14.01,2013-02-08 13:33:00,
2013-02-08 06:38:00,25.7,8.7,29.90,West,266,4.5,4.9,48,0.00,,---,0.00,VWS V14.01,2013-02-08 13:38:00,
2013-02-08 06:44:00,25.5,8.6,29.90,WNW,299,0.0,0.0,48,0.00,,---,0.00,VWS V14.01,2013-02-08 13:44:00,
2013-02-08 06:49:00,25.2,7.8,29.90,WNW,283,0.0,0.0,47,0.00,,---,0.00,VWS V14.01,2013-02-08 13:49:00,
2013-02-08 06:54:00,24.6,7.7,29.90,WNW,283,0.0,0.0,48,0.00,,---,0.00,VWS V14.01,2013-02-08 13:54:00,
2013-02-08 06:59:00,24.1,6.3,29.90,WSW,244,0.0,0.0,46,0.00,,---,0.00,VWS V14.01,2013-02-08 13:59:00,
2013-02-08 07:05:00,23.0,5.3,29.90,WSW,244,0.0,0.0,46,0.00,,---,0.00,VWS V14.01,2013-02-08 14:05:00,
2013-02-08 07:11:00,21.9,3.4,29.90,WSW,249,0.0,0.0,44,0.00,,---,0.00,VWS V14.01,2013-02-08 14:11:00,
2013-02-08 07:17:00,20.8,2.9,29.90,WSW,250,0.0,0.0,45,0.00,,---,0.00,VWS V14.01,2013-02-08 14:17:00,
2013-02-08 07:22:00,20.1,2.2,29.90,North,5,0.0,0.0,45,0.00,,---,0.00,VWS V14.01,2013-02-08 14:22:00,
2013-02-08 07:27:00,19.4,1.5,29.90,South,179,0.0,0.0,45,0.00,,---,0.00,VWS V14.01,2013-02-08 14:27:00,
2013-02-08 07:32:00,18.7,1.4,29.90,WSW,249,0.0,0.0,46,0.00,,---,0.00,VWS V14.01,2013-02-08 14:32:00,
2013-02-08 07:38:00,17.8,0.5,29.90,SSW,197,0.0,0.0,46,0.00,,---,0.00,VWS V14.01,2013-02-08 14:38:00,
2013-02-08 07:43:00,16.9,-0.3,29.90,South,173,5.8,5.8,46,0.00,,---,0.00,VWS V14.01,2013-02-08 14:43:00,
2013-02-08 07:49:00,16.2,-0.5,29.90,ENE,61,4.0,4.0,47,0.00,,---,0.00,VWS V14.01,2013-02-08 14:49:00,
2013-02-08 07:54:00,15.4,-1.2,29.90,WSW,243,3.6,4.0,47,0.00,,---,0.00,VWS V14.01,2013-02-08 14:54:00,
2013-02-08 07:59:00,14.7,-1.4,29.90,SSW,197,0.0,0.0,48,0.00,,---,0.00,VWS V14.01,2013-02-08 14:59:00,
2013-02-08 08:04:00,14.5,-0.7,29.87,SW,234,8.1,9.2,50,0.00,,---,0.00,VWS V14.01,2013-02-08 15:04:00,
2013-02-08 08:09:00,16.5,4.0,29.87,South,171,20.1,20.1,57,0.00,,---,0.00,VWS V14.01,2013-02-08 15:09:00,
2013-02-08 08:14:00,21.9,6.6,29.87,SSE,161,24.2,24.2,51,0.00,,---,0.00,VWS V14.01,2013-02-08 15:14:00,
2013-02-08 08:20:00,25.3,6.0,29.87,SSE,164,11.4,18.3,43,0.00,,---,0.00,VWS V14.01,2013-02-08 15:20:00,
2013-02-08 08:25:00,27.0,6.4,29.87,SSW,192,9.2,25.7,41,0.00,,---,0.00,VWS V14.01,2013-02-08 15:25:00,
2013-02-08 08:31:00,28.0,7.4,29.87,South,187,17.0,29.3,41,0.00,,---,0.00,VWS V14.01,2013-02-08 15:31:00,
2013-02-08 08:36:00,28.6,7.3,29.87,SW,218,24.2,24.2,40,0.00,,---,0.00,VWS V14.01,2013-02-08 15:36:00,
2013-02-08 08:42:00,28.8,5.8,29.87,South,175,17.0,17.0,37,0.00,,---,0.00,VWS V14.01,2013-02-08 15:42:00,
2013-02-08 08:48:00,29.1,6.1,29.87,SSE,160,12.3,18.8,37,0.00,,---,0.00,VWS V14.01,2013-02-08 15:48:00,
2013-02-08 08:53:00,29.1,6.1,29.87,SW,229,10.5,15.4,37,0.00,,---,0.00,VWS V14.01,2013-02-08 15:53:00,
2013-02-08 08:59:00,29.3,6.9,29.87,South,173,12.3,16.3,38,0.00,,---,0.00,VWS V14.01,2013-02-08 15:59:00,
2013-02-08 09:05:00,29.3,7.4,29.87,WSW,240,13.2,21.9,39,0.00,,---,0.00,VWS V14.01,2013-02-08 16:05:00,
2013-02-08 09:10:00,29.3,8.0,29.87,SW,230,11.0,17.4,40,0.00,,---,0.00,VWS V14.01,2013-02-08 16:10:00,
2013-02-08 09:15:00,29.5,7.6,29.87,SSW,200,12.3,15.4,39,0.00,,---,0.00,VWS V14.01,2013-02-08 16:15:00,
2013-02-08 09:20:00,29.5,7.6,29.87,WSW,238,8.3,13.2,39,0.00,,---,0.00,VWS V14.01,2013-02-08 16:20:00,
2013-02-08 09:26:00,29.7,8.3,29.87,SSW,213,11.0,13.2,40,0.00,,---,0.00,VWS V14.01,2013-02-08 16:26:00,
2013-02-08 09:31:00,29.7,7.8,29.87,SW,216,5.8,9.6,39,0.00,,---,0.00,VWS V14.01,2013-02-08 16:31:00,
2013-02-08 09:36:00,29.8,7.9,29.87,SSE,156,14.5,16.8,39,0.00,,---,0.00,VWS V14.01,2013-02-08 16:36:00,
2013-02-08 09:41:00,29.8,6.8,29.87,SW,223,10.1,18.8,37,0.00,,---,0.00,VWS V14.01,2013-02-08 16:41:00,
2013-02-08 09:46:00,30.0,6.9,29.87,SW,228,12.8,15.4,37,0.00,,---,0.00,VWS V14.01,2013-02-08 16:46:00,
2013-02-08 09:52:00,30.2,7.1,29.84,SSW,199,19.7,19.7,37,0.00,,---,0.00,VWS V14.01,2013-02-08 16:52:00,
2013-02-08 09:57:00,30.4,6.6,29.84,South,181,17.4,22.8,36,0.00,,---,0.00,VWS V14.01,2013-02-08 16:57:00,
2013-02-08 10:03:00,30.4,6.6,29.84,SSE,161,23.7,26.2,36,0.00,,---,0.00,VWS V14.01,2013-02-08 17:03:00,
2013-02-08 10:09:00,30.7,7.6,29.84,SW,224,25.7,29.3,37,0.00,,---,0.00,VWS V14.01,2013-02-08 17:09:00,
2013-02-08 10:15:00,30.7,7.0,29.84,SSW,210,17.4,23.3,36,0.00,,---,0.00,VWS V14.01,2013-02-08 17:15:00,
2013-02-08 10:21:00,31.1,7.3,29.84,SSE,161,19.7,25.1,36,0.00,,---,0.00,VWS V14.01,2013-02-08 17:21:00,
2013-02-08 10:26:00,31.3,8.6,29.84,SSW,210,23.7,23.7,38,0.00,,---,0.00,VWS V14.01,2013-02-08 17:26:00,
2013-02-08 10:32:00,31.5,8.8,29.84,WSW,252,8.1,10.5,38,0.00,,---,0.00,VWS V14.01,2013-02-08 17:32:00,
2013-02-08 10:38:00,31.5,8.8,29.84,SSE,150,16.3,18.3,38,0.00,,---,0.00,VWS V14.01,2013-02-08 17:38:00,
2013-02-08 10:43:00,31.6,9.0,29.84,SW,227,10.5,16.3,38,0.00,,---,0.00,VWS V14.01,2013-02-08 17:43:00,
2013-02-08 10:49:00,31.8,9.7,29.84,WSW,238,8.7,22.8,39,0.00,,---,0.00,VWS V14.01,2013-02-08 17:49:00,
2013-02-08 10:55:00,32.0,9.3,29.84,SW,225,13.2,13.6,38,0.00,,---,0.00,VWS V14.01,2013-02-08 17:55:00,
2013-02-08 11:01:00,31.8,9.7,29.84,WSW,250,11.0,15.4,39,0.00,,---,0.00,VWS V14.01,2013-02-08 18:01:00,
2013-02-08 11:07:00,31.8,10.3,29.87,WSW,248,8.3,10.1,40,0.00,,---,0.00,VWS V14.01,2013-02-08 18:07:00,
2013-02-08 11:13:00,31.6,10.1,29.87,SSW,210,10.5,15.0,40,0.00,,---,0.00,VWS V14.01,2013-02-08 18:13:00,
2013-02-08 11:18:00,31.8,10.3,29.84,SW,232,15.0,15.0,40,0.00,,---,0.00,VWS V14.01,2013-02-08 18:18:00,
2013-02-08 11:24:00,32.0,10.4,29.84,SSW,198,12.3,12.8,40,0.00,,---,0.00,VWS V14.01,2013-02-08 18:24:00,
2013-02-08 11:30:00,31.8,10.3,29.84,West,266,8.7,20.1,40,0.00,,---,0.00,VWS V14.01,2013-02-08 18:30:00,
2013-02-08 11:36:00,32.0,10.4,29.84,SSW,210,12.8,15.0,40,0.00,,---,0.00,VWS V14.01,2013-02-08 18:36:00,
2013-02-08 11:42:00,32.2,11.1,29.84,SW,225,9.6,12.3,41,0.00,,---,0.00,VWS V14.01,2013-02-08 18:42:00,
2013-02-08 11:47:00,32.2,10.6,29.84,WSW,254,8.7,18.3,40,0.00,,---,0.00,VWS V14.01,2013-02-08 18:47:00,
2013-02-08 11:53:00,32.4,11.3,29.84,WSW,252,10.1,13.6,41,0.00,,---,0.00,VWS V14.01,2013-02-08 18:53:00,
2013-02-08 11:59:00,32.5,11.5,29.84,WSW,238,15.0,15.0,41,0.00,,---,0.00,VWS V14.01,2013-02-08 18:59:00,
2013-02-08 12:04:00,32.7,11.6,29.84,SSW,211,12.3,13.6,41,0.00,,---,0.00,VWS V14.01,2013-02-08 19:04:00,
2013-02-08 12:10:00,32.9,11.8,29.84,SSW,212,13.2,15.4,41,0.00,,---,0.00,VWS V14.01,2013-02-08 19:10:00,
2013-02-08 12:16:00,32.7,11.1,29.84,West,265,8.3,17.9,40,0.00,,---,0.00,VWS V14.01,2013-02-08 19:16:00,
2013-02-08 12:22:00,32.7,11.1,29.81,SW,219,10.5,13.6,40,0.00,,---,0.00,VWS V14.01,2013-02-08 19:22:00,
2013-02-08 12:27:00,32.9,11.8,29.81,SSW,205,15.0,20.6,41,0.00,,---,0.00,VWS V14.01,2013-02-08 19:27:00,
2013-02-08 12:33:00,32.7,11.1,29.81,SW,232,14.5,14.5,40,0.00,,---,0.00,VWS V14.01,2013-02-08 19:33:00,
2013-02-08 12:39:00,32.7,11.6,29.81,South,180,13.6,19.7,41,0.00,,---,0.00,VWS V14.01,2013-02-08 19:39:00,
2013-02-08 12:44:00,32.7,11.6,29.81,West,273,14.5,24.2,41,0.00,,---,0.00,VWS V14.01,2013-02-08 19:44:00,
2013-02-08 12:50:00,32.7,11.6,29.78,SSW,198,11.0,17.0,41,0.00,,---,0.00,VWS V14.01,2013-02-08 19:50:00,
2013-02-08 12:56:00,32.9,11.2,29.78,WSW,256,10.5,21.5,40,0.00,,---,0.00,VWS V14.01,2013-02-08 19:56:00,
2013-02-08 13:01:00,32.7,11.6,29.78,SSE,156,13.2,17.0,41,0.00,,---,0.00,VWS V14.01,2013-02-08 20:01:00,
2013-02-08 13:07:00,32.5,11.5,29.78,WSW,241,8.3,12.8,41,0.00,,---,0.00,VWS V14.01,2013-02-08 20:07:00,
2013-02-08 13:12:00,32.5,11.5,29.78,SW,226,5.4,17.4,41,0.00,,---,0.00,VWS V14.01,2013-02-08 20:12:00,
2013-02-08 13:18:00,32.4,11.9,29.78,WSW,245,15.0,24.2,42,0.00,,---,0.00,VWS V14.01,2013-02-08 20:18:00,
2013-02-08 13:24:00,32.4,11.9,29.78,WSW,254,17.0,18.3,42,0.00,,---,0.00,VWS V14.01,2013-02-08 20:24:00,
2013-02-08 13:30:00,32.0,12.1,29.78,SSW,207,19.2,19.2,43,0.00,,---,0.00,VWS V14.01,2013-02-08 20:30:00,
2013-02-08 13:35:00,32.2,12.2,29.78,SSW,211,15.9,15.9,43,0.00,,---,0.00,VWS V14.01,2013-02-08 20:35:00,
2013-02-08 13:41:00,32.2,11.7,29.78,SSW,210,11.9,17.0,42,0.00,,---,0.00,VWS V14.01,2013-02-08 20:41:00,
2013-02-08 13:47:00,32.5,12.0,29.78,SW,233,8.7,11.0,42,0.00,,---,0.00,VWS V14.01,2013-02-08 20:47:00,
2013-02-08 13:52:00,32.5,11.5,29.78,WSW,244,5.8,11.0,41,0.00,,---,0.00,VWS V14.01,2013-02-08 20:52:00,
2013-02-08 13:58:00,32.5,12.0,29.78,WSW,246,11.9,14.5,42,0.00,,---,0.00,VWS V14.01,2013-02-08 20:58:00,
2013-02-08 14:03:00,32.5,12.5,29.78,South,187,5.4,10.5,43,0.00,,---,0.00,VWS V14.01,2013-02-08 21:03:00,
2013-02-08 14:09:00,32.4,12.9,29.78,SW,232,8.1,11.0,44,0.00,,---,0.00,VWS V14.01,2013-02-08 21:09:00,
2013-02-08 14:15:00,32.7,12.7,29.78,SSW,205,8.1,14.1,43,0.00,,---,0.00,VWS V14.01,2013-02-08 21:15:00,
2013-02-08 14:21:00,32.7,12.2,29.78,South,180,11.0,22.4,42,0.00,,---,0.00,VWS V14.01,2013-02-08 21:21:00,
2013-02-08 14:27:00,32.7,12.2,29.78,SW,232,5.8,12.8,42,0.00,,---,0.00,VWS V14.01,2013-02-08 21:27:00,
2013-02-08 14:32:00,32.9,11.8,29.78,SSW,205,13.2,13.2,41,0.00,,---,0.00,VWS V14.01,2013-02-08 21:32:00,
2013-02-08 14:38:00,33.1,12.0,29.75,SSW,212,10.5,12.3,41,0.00,,---,0.00,VWS V14.01,2013-02-08 21:38:00,
2013-02-08 14:43:00,33.3,11.6,29.75,SW,222,8.3,8.3,40,0.00,,---,0.00,VWS V14.01,2013-02-08 21:43:00,
2013-02-08 14:48:00,33.3,11.6,29.78,SSW,207,5.8,12.8,40,0.00,,---,0.00,VWS V14.01,2013-02-08 21:48:00,
2013-02-08 14:54:00,33.4,10.0,29.78,WSW,252,5.8,15.0,37,0.00,,---,0.00,VWS V14.01,2013-02-08 21:54:00,
2013-02-08 14:59:00,33.4,10.6,29.78,South,176,7.6,11.0,38,0.00,,---,0.00,VWS V14.01,2013-02-08 21:59:00,
2013-02-08 15:05:00,33.4,11.2,29.75,WSW,245,8.1,12.3,39,0.00,,---,0.00,VWS V14.01,2013-02-08 22:05:00,
2013-02-08 15:10:00,33.3,10.4,29.75,South,176,10.1,15.4,38,0.00,,---,0.00,VWS V14.01,2013-02-08 22:10:00,
2013-02-08 15:16:00,33.4,9.4,29.75,SSW,203,12.8,13.2,36,0.00,,---,0.00,VWS V14.01,2013-02-08 22:16:00,
2013-02-08 15:21:00,33.6,8.9,29.75,ESE,120,12.8,13.2,35,0.00,,---,0.00,VWS V14.01,2013-02-08 22:21:00,
2013-02-08 15:27:00,33.6,8.9,29.75,South,179,8.7,14.5,35,0.00,,---,0.00,VWS V14.01,2013-02-08 22:27:00,
2013-02-08 15:33:00,33.4,8.1,29.75,WSW,257,8.3,10.5,34,0.00,,---,0.00,VWS V14.01,2013-02-08 22:33:00,
2013-02-08 15:38:00,33.3,7.9,29.75,WSW,238,12.8,12.8,34,0.00,,---,0.00,VWS V14.01,2013-02-08 22:38:00,
2013-02-08 15:44:00,33.3,7.9,29.75,WSW,246,15.4,15.4,34,0.00,,---,0.00,VWS V14.01,2013-02-08 22:44:00,
2013-02-08 15:49:00,33.3,7.9,29.75,SSW,208,16.8,16.8,34,0.00,,---,0.00,VWS V14.01,2013-02-08 22:49:00,
2013-02-08 15:55:00,33.3,7.9,29.75,SW,222,3.1,8.3,34,0.00,,---,0.00,VWS V14.01,2013-02-08 22:55:00,
2013-02-08 16:01:00,33.1,8.4,29.75,South,172,5.8,10.1,35,0.00,,---,0.00,VWS V14.01,2013-02-08 23:01:00,
2013-02-08 16:07:00,33.3,8.6,29.75,SW,219,10.5,11.4,35,0.00,,---,0.00,VWS V14.01,2013-02-08 23:07:00,
2013-02-08 16:12:00,33.1,8.4,29.75,WSW,246,5.4,7.6,35,0.00,,---,0.00,VWS V14.01,2013-02-08 23:12:00,
2013-02-08 16:18:00,32.5,12.0,29.75,WSW,257,11.0,11.0,42,0.00,,---,0.00,VWS V14.01,2013-02-08 23:18:00,
2013-02-08 16:23:00,32.0,11.5,29.75,West,259,7.6,7.6,42,0.00,,---,0.00,VWS V14.01,2013-02-08 23:23:00,
2013-02-08 16:29:00,31.8,10.8,29.75,WSW,258,7.6,10.5,41,0.00,,---,0.00,VWS V14.01,2013-02-08 23:29:00,
2013-02-08 16:35:00,31.6,11.7,29.75,SW,233,5.4,8.7,43,0.00,,---,0.00,VWS V14.01,2013-02-08 23:35:00,
2013-02-08 16:40:00,31.1,11.8,29.75,West,263,10.5,10.5,44,0.00,,---,0.00,VWS V14.01,2013-02-08 23:40:00,
2013-02-08 16:46:00,30.7,16.9,29.75,SSW,198,8.1,8.1,56,0.00,,---,0.00,VWS V14.01,2013-02-08 23:46:00,
2013-02-08 16:51:00,30.2,19.1,29.75,West,264,5.4,8.3,63,0.00,,---,0.00,VWS V14.01,2013-02-08 23:51:00,
2013-02-08 16:57:00,29.3,19.0,29.75,West,268,5.4,6.3,65,0.00,,---,0.00,VWS V14.01,2013-02-08 23:57:00,
2013-02-08 17:03:00,28.8,18.9,29.75,WSW,256,5.4,7.6,66,0.00,,---,0.00,VWS V14.01,2013-02-09 00:03:00,
2013-02-08 17:08:00,28.8,19.2,29.75,WSW,240,3.6,5.4,67,0.00,,---,0.00,VWS V14.01,2013-02-09 00:08:00,
2013-02-08 17:13:00,28.9,18.7,29.75,WSW,237,3.1,5.8,65,0.00,,---,0.00,VWS V14.01,2013-02-09 00:13:00,
2013-02-08 17:19:00,28.9,17.9,29.75,SSW,197,4.0,5.8,63,0.00,,---,0.00,VWS V14.01,2013-02-09 00:19:00,
2013-02-08 17:24:00,28.8,17.8,29.75,SW,227,5.4,5.8,63,0.00,,---,0.00,VWS V14.01,2013-02-09 00:24:00,
2013-02-08 17:29:00,28.8,18.1,29.75,WSW,250,3.1,3.6,64,0.00,,---,0.00,VWS V14.01,2013-02-09 00:29:00,
2013-02-08 17:35:00,28.6,18.0,29.75,WSW,249,3.6,5.8,64,0.00,,---,0.00,VWS V14.01,2013-02-09 00:35:00,
2013-02-08 17:40:00,28.8,18.1,29.75,SE,145,2.7,4.5,64,0.00,,---,0.00,VWS V14.01,2013-02-09 00:40:00,
2013-02-08 17:46:00,28.8,17.0,29.75,WSW,238,2.2,3.6,61,0.00,,---,0.00,VWS V14.01,2013-02-09 00:46:00,
2013-02-08 17:52:00,28.9,16.8,29.72,SSW,196,6.3,8.3,60,0.00,,---,0.00,VWS V14.01,2013-02-09 00:52:00,
2013-02-08 17:58:00,29.1,16.2,29.72,SW,233,4.9,4.9,58,0.00,,---,0.00,VWS V14.01,2013-02-09 00:58:00,
2013-02-08 18:03:00,29.3,16.0,29.72,SSW,210,3.6,6.3,57,0.00,,---,0.00,VWS V14.01,2013-02-09 01:03:00,
2013-02-08 18:09:00,29.1,15.8,29.72,WSW,255,3.1,4.5,57,0.00,,---,0.00,VWS V14.01,2013-02-09 01:09:00,
2013-02-08 18:15:00,28.9,16.0,29.72,WSW,243,3.6,5.4,58,0.00,,---,0.00,VWS V14.01,2013-02-09 01:15:00,
2013-02-08 18:21:00,28.8,16.2,29.72,West,266,5.8,5.8,59,0.00,,---,0.00,VWS V14.01,2013-02-09 01:21:00,
2013-02-08 18:27:00,28.8,15.5,29.72,WSW,238,5.8,7.6,57,0.00,,---,0.00,VWS V14.01,2013-02-09 01:27:00,
2013-02-08 18:32:00,28.9,14.4,29.72,West,260,4.0,8.3,54,0.00,,---,0.00,VWS V14.01,2013-02-09 01:32:00,
2013-02-08 18:37:00,29.1,14.6,29.72,South,177,4.0,6.3,54,0.00,,---,0.00,VWS V14.01,2013-02-09 01:37:00,
2013-02-08 18:43:00,29.3,14.7,29.72,SSW,198,3.6,5.4,54,0.00,,---,0.00,VWS V14.01,2013-02-09 01:43:00,
2013-02-08 18:48:00,29.5,14.5,29.72,SW,216,3.1,4.5,53,0.00,,---,0.00,VWS V14.01,2013-02-09 01:48:00,
2013-02-08 18:54:00,29.5,14.0,29.72,SW,226,4.0,5.8,52,0.00,,---,0.00,VWS V14.01,2013-02-09 01:54:00,
2013-02-08 18:59:00,29.7,13.8,29.72,SW,230,5.8,5.8,51,0.00,,---,0.00,VWS V14.01,2013-02-09 01:59:00,
2013-02-08 19:05:00,29.7,13.3,29.72,South,190,0.0,4.5,50,0.00,,---,0.00,VWS V14.01,2013-02-09 02:05:00,
2013-02-08 19:10:00,29.7,12.4,29.72,WSW,245,2.7,3.6,48,0.00,,---,0.00,VWS V14.01,2013-02-09 02:10:00,
2013-02-08 19:16:00,29.8,11.6,29.72,SSE,159,2.7,4.5,46,0.00,,---,0.00,VWS V14.01,2013-02-09 02:16:00,
2013-02-08 19:22:00,30.0,11.8,29.72,SSW,209,3.6,4.0,46,0.00,,---,0.00,VWS V14.01,2013-02-09 02:22:00,
2013-02-08 19:27:00,30.0,11.8,29.72,WSW,240,0.0,3.6,46,0.00,,---,0.00,VWS V14.01,2013-02-09 02:27:00,
2013-02-08 19:33:00,30.0,11.8,29.72,South,190,3.1,3.6,46,0.00,,---,0.00,VWS V14.01,2013-02-09 02:33:00,
2013-02-08 19:39:00,30.0,11.8,29.72,SSW,196,3.1,6.3,46,0.00,,---,0.00,VWS V14.01,2013-02-09 02:39:00,
2013-02-08 19:44:00,29.8,11.1,29.72,SSW,211,5.4,5.4,45,0.00,,---,0.00,VWS V14.01,2013-02-09 02:44:00,
2013-02-08 19:49:00,30.0,11.3,29.72,South,187,3.6,4.9,45,0.00,,---,0.00,VWS V14.01,2013-02-09 02:49:00,
2013-02-08 19:54:00,30.2,10.4,29.72,SSW,200,6.3,6.3,43,0.00,,---,0.00,VWS V14.01,2013-02-09 02:54:00,
2013-02-08 20:00:00,30.2,10.9,29.72,SSW,208,4.9,8.1,44,0.00,,---,0.00,VWS V14.01,2013-02-09 03:00:00,
2013-02-08 20:06:00,30.2,10.4,29.72,West,260,5.4,5.4,43,0.00,,---,0.00,VWS V14.01,2013-02-09 03:06:00,
2013-02-08 20:11:00,30.2,9.9,29.72,West,262,6.7,6.7,42,0.00,,---,0.00,VWS V14.01,2013-02-09 03:11:00,
2013-02-08 20:17:00,30.2,9.4,29.72,SW,215,8.1,10.5,41,0.00,,---,0.00,VWS V14.01,2013-02-09 03:17:00,
2013-02-08 20:22:00,30.9,10.0,29.72,WSW,245,7.6,14.5,41,0.00,,---,0.00,VWS V14.01,2013-02-09 03:22:00,
2013-02-08 20:28:00,31.1,10.7,29.72,SSW,198,4.0,11.4,42,0.00,,---,0.00,VWS V14.01,2013-02-09 03:28:00,
2013-02-08 20:34:00,30.9,11.1,29.72,South,189,10.5,13.2,43,0.00,,---,0.00,VWS V14.01,2013-02-09 03:34:00,
2013-02-08 20:39:00,30.7,10.9,29.72,SSW,196,14.5,14.5,43,0.00,,---,0.00,VWS V14.01,2013-02-09 03:39:00,
2013-02-08 20:46:00,30.6,10.7,29.72,SSW,211,11.0,15.4,43,0.00,,---,0.00,VWS V14.01,2013-02-09 03:46:00,
2013-02-08 20:51:00,30.6,10.2,29.72,SSW,200,10.5,15.4,42,0.00,,---,0.00,VWS V14.01,2013-02-09 03:51:00,
2013-02-08 20:56:00,30.6,9.7,29.72,SW,228,8.3,12.8,41,0.00,,---,0.00,VWS V14.01,2013-02-09 03:56:00,
2013-02-08 21:02:00,30.7,9.8,29.72,South,191,12.3,13.2,41,0.00,,---,0.00,VWS V14.01,2013-02-09 04:02:00,
2013-02-08 21:08:00,30.7,9.8,29.72,SSW,200,12.8,14.5,41,0.00,,---,0.00,VWS V14.01,2013-02-09 04:08:00,
2013-02-08 21:13:00,30.7,9.8,29.72,South,188,5.8,12.3,41,0.00,,---,0.00,VWS V14.01,2013-02-09 04:13:00,
2013-02-08 21:19:00,30.9,9.4,29.72,SSW,203,8.7,13.2,40,0.00,,---,0.00,VWS V14.01,2013-02-09 04:19:00,
2013-02-08 21:24:00,30.9,9.4,29.72,SSW,195,15.0,15.0,40,0.00,,---,0.00,VWS V14.01,2013-02-09 04:24:00,
2013-02-08 21:31:00,30.9,9.4,29.72,South,175,11.0,14.1,40,0.00,,---,0.00,VWS V14.01,2013-02-09 04:31:00,
2013-02-08 21:36:00,30.9,9.4,29.70,South,177,13.2,13.2,40,0.00,,---,0.00,VWS V14.01,2013-02-09 04:36:00,
2013-02-08 21:42:00,30.9,9.4,29.70,WSW,257,11.0,13.2,40,0.00,,---,0.00,VWS V14.01,2013-02-09 04:42:00,
2013-02-08 21:48:00,30.9,7.7,29.70,SSW,198,13.2,14.1,37,0.00,,---,0.00,VWS V14.01,2013-02-09 04:48:00,
2013-02-08 21:54:00,31.1,6.0,29.70,SSW,206,8.7,22.4,34,0.00,,---,0.00,VWS V14.01,2013-02-09 04:54:00,
2013-02-08 21:59:00,31.3,6.2,29.70,SSE,164,15.4,17.4,34,0.00,,---,0.00,VWS V14.01,2013-02-09 04:59:00,
2013-02-08 22:00:00,31.3,5.5,29.70,SSE,168,11.0,22.4,33,0.00,,---,0.00,VWS V14.01,2013-02-09 05:00:00,
2013-02-08 22:01:00,31.5,5.7,29.70,South,176,11.0,13.2,33,0.00,,---,0.00,VWS V14.01,2013-02-09 05:01:00,
2013-02-08 22:02:00,31.3,6.2,29.70,SW,222,8.7,11.0,34,0.00,,---,0.00,VWS V14.01,2013-02-09 05:02:00,
2013-02-08 22:08:00,31.3,6.2,29.70,South,180,6.7,10.1,34,0.00,,---,0.00,VWS V14.01,2013-02-09 05:08:00,
2013-02-08 22:13:00,31.3,6.2,29.70,WSW,246,6.7,11.0,34,0.00,,---,0.00,VWS V14.01,2013-02-09 05:13:00,
2013-02-08 22:18:00,31.1,6.0,29.70,SSW,200,15.0,15.0,34,0.00,,---,0.00,VWS V14.01,2013-02-09 05:18:00,
2013-02-08 22:23:00,31.1,6.0,29.70,SSW,199,12.3,17.9,34,0.00,,---,0.00,VWS V14.01,2013-02-09 05:23:00,
2013-02-08 22:28:00,31.1,5.4,29.70,SSW,198,11.0,11.0,33,0.00,,---,0.00,VWS V14.01,2013-02-09 05:28:00,
2013-02-08 22:33:00,31.1,5.4,29.70,SW,214,8.1,15.4,33,0.00,,---,0.00,VWS V14.01,2013-02-09 05:33:00,
2013-02-08 22:38:00,31.1,5.4,29.70,SW,222,8.3,10.5,33,0.00,,---,0.00,VWS V14.01,2013-02-09 05:38:00,
2013-02-08 22:44:00,30.9,5.2,29.70,SW,227,7.6,14.5,33,0.00,,---,0.00,VWS V14.01,2013-02-09 05:44:00,
2013-02-08 22:50:00,30.9,5.2,29.70,South,185,10.1,10.1,33,0.00,,---,0.00,VWS V14.01,2013-02-09 05:50:00,
2013-02-08 22:55:00,30.9,5.2,29.70,SSW,194,11.0,12.3,33,0.00,,---,0.00,VWS V14.01,2013-02-09 05:55:00,
2013-02-08 23:00:00,30.9,5.2,29.70,SSW,211,10.5,14.5,33,0.00,,---,0.00,VWS V14.01,2013-02-09 06:00:00,
2013-02-08 23:05:00,30.9,4.5,29.70,SW,214,6.3,11.0,32,0.00,,---,0.00,VWS V14.01,2013-02-09 06:05:00,
2013-02-08 23:11:00,30.6,4.9,29.70,WSW,247,8.1,8.3,33,0.00,,---,0.00,VWS V14.01,2013-02-09 06:11:00,
2013-02-08 23:16:00,30.2,4.6,29.70,WSW,243,8.1,12.3,33,0.00,,---,0.00,VWS V14.01,2013-02-09 06:16:00,
2013-02-08 23:22:00,30.2,5.2,29.70,SE,130,5.8,12.3,34,0.00,,---,0.00,VWS V14.01,2013-02-09 06:22:00,
2013-02-08 23:28:00,30.2,5.2,29.70,SSW,197,6.3,6.3,34,0.00,,---,0.00,VWS V14.01,2013-02-09 06:28:00,
2013-02-08 23:33:00,30.2,5.2,29.72,SW,222,5.4,11.0,34,0.00,,---,0.00,VWS V14.01,2013-02-09 06:33:00,
2013-02-08 23:39:00,30.2,4.6,29.72,WSW,237,5.4,8.7,33,0.00,,---,0.00,VWS V14.01,2013-02-09 06:39:00,
2013-02-08 23:44:00,30.2,5.2,29.72,SW,231,6.3,8.3,34,0.00,,---,0.00,VWS V14.01,2013-02-09 06:44:00,
2013-02-08 23:51:00,29.7,4.7,29.70,SW,232,6.3,6.3,34,0.00,,---,0.00,VWS V14.01,2013-02-09 06:51:00,
2013-02-08 23:56:00,29.7,4.7,29.70,WSW,250,2.7,3.6,34,0.00,,---,0.00,VWS V14.01,2013-02-09 06:56:00,